In Rescue
 
Open Full Screen Window  High Contrast Mode
Wind Gusting 00 knots
07
May 25, 2022 7:45 PM CDT
Weather Information
Wind Direction
  040 °
Wind Speed
  07 kt (8 mph)
Wind Gust
  00 kt (0 mph)
Altimeter
29.90 in
Visibility
10 SM
Temperature
10° C
50° F
Dewpoint
07° C
45° F
Humidity
82%
1hr Rain Fall
00.00 in.
24hr Rain Fall
00.15 in.
Sky Condition
Overcast @ 2,000 ft
Broken @ 1,400 ft
Scattered @ 800 ft
MVFR

METAR KMGG 260045Z AUTO 04007KT 10SM SCT008 BKN014 OVC020 10/07 A2990 RMK AO2

FAA Disclaimer: The data displayed is for advisory purposes only and is not to be used for flight planning or operations.